Time;durP1;ratioP1;P1;durP2;ratioP2;P2;SDS_P1;SDS_P2;PMS_P1;PMS_P2;Temp;Humidity;BMP_temperature;BMP_pressure;BME280_temperature;BME280_humidity;BME280_pressure;Samples;Min_cycle;Max_cycle;Signal;HPM_P1;HPM_P2
2022/07/04 00:01:26;;;;;;;7.40;2.33;;;;;;;13.32;85.43;102070.31;5016310;28;20062;-52
2022/07/04 00:03:53;;;;;;;4.72;1.92;;;;;;;13.28;86.22;102067.75;5017276;28;20050;-50
2022/07/04 00:06:19;;;;;;;3.03;2.17;;;;;;;13.24;86.58;102072.44;5017039;28;20055;-51
2022/07/04 00:08:46;;;;;;;2.70;2.25;;;;;;;13.19;86.76;102069.56;5016590;28;20051;-47
2022/07/04 00:11:12;;;;;;;2.67;1.90;;;;;;;13.13;86.69;102058.63;5016942;28;20054;-46
2022/07/04 00:13:38;;;;;;;3.33;1.95;;;;;;;13.11;86.96;102060.22;5014168;28;20510;-46
2022/07/04 00:16:05;;;;;;;2.17;2.05;;;;;;;13.10;87.03;102053.38;5016552;28;20507;-47
2022/07/04 00:18:31;;;;;;;3.45;2.17;;;;;;;13.09;87.05;102049.94;5016722;28;20050;-48
2022/07/04 00:20:58;;;;;;;7.50;2.20;;;;;;;13.06;86.69;102055.38;5015780;28;20054;-49
2022/07/04 00:23:24;;;;;;;6.50;2.13;;;;;;;13.03;86.74;102052.38;5016878;28;20050;-47
2022/07/04 00:25:50;;;;;;;2.95;2.05;;;;;;;12.99;87.16;102046.38;5016578;28;20050;-48
2022/07/04 00:28:17;;;;;;;3.47;2.00;;;;;;;12.95;86.94;102048.41;5015975;28;20055;-49
2022/07/04 00:30:43;;;;;;;3.70;2.40;;;;;;;12.93;87.62;102036.63;5016047;28;20050;-50
2022/07/04 00:33:12;;;;;;;3.35;2.25;;;;;;;12.90;87.66;102040.16;5016859;28;20057;-47
2022/07/04 00:35:38;;;;;;;3.95;2.30;;;;;;;12.89;87.67;102046.66;5015584;28;20050;-49
2022/07/04 00:38:05;;;;;;;5.07;2.35;;;;;;;12.85;87.65;102041.41;5016668;28;20137;-46
2022/07/04 00:40:31;;;;;;;4.43;2.33;;;;;;;12.79;88.18;102035.13;5015865;28;20046;-46
2022/07/04 00:43:05;;;;;;;9.05;2.65;;;;;;;12.76;87.85;102043.22;5015640;28;20054;-47
2022/07/04 00:45:31;;;;;;;3.85;2.40;;;;;;;12.68;88.53;102035.41;5015823;28;20058;-46
2022/07/04 00:47:57;;;;;;;4.10;2.10;;;;;;;12.66;88.49;102037.00;5016421;28;20061;-48
2022/07/04 00:50:25;;;;;;;3.60;2.20;;;;;;;12.62;88.63;102037.09;5016373;28;20050;-52
2022/07/04 00:52:52;;;;;;;5.00;2.20;;;;;;;12.63;88.11;102027.91;5016083;28;20053;-52
2022/07/04 00:55:22;;;;;;;2.17;2.00;;;;;;;12.64;88.09;102029.41;5015917;28;20129;-47
2022/07/04 00:57:48;;;;;;;2.20;2.00;;;;;;;12.62;88.19;102031.00;5016165;28;20058;-50
2022/07/04 01:00:15;;;;;;;2.92;2.08;;;;;;;12.57;88.23;102029.56;5015779;28;20061;-47
2022/07/04 01:02:41;;;;;;;2.97;2.00;;;;;;;12.57;88.19;102032.25;5016211;28;20050;-46
2022/07/04 01:05:08;;;;;;;6.78;2.33;;;;;;;12.52;88.42;102027.41;5016130;28;20050;-52
2022/07/04 01:07:35;;;;;;;3.58;2.75;;;;;;;12.49;88.29;102022.91;5015750;28;20540;-47
2022/07/04 01:10:03;;;;;;;5.35;2.40;;;;;;;12.51;88.98;102028.59;5016054;28;20062;-46
2022/07/04 01:12:30;;;;;;;4.43;2.40;;;;;;;12.47;88.88;102025.25;5015815;28;20077;-46
2022/07/04 01:14:56;;;;;;;5.28;2.42;;;;;;;12.48;89.21;102031.34;5016048;28;20490;-47
2022/07/04 01:17:23;;;;;;;3.03;2.30;;;;;;;12.49;88.56;102033.59;5015461;28;20081;-46
2022/07/04 01:19:50;;;;;;;2.50;2.40;;;;;;;12.44;89.22;102028.00;5029824;28;20055;-47
2022/07/04 01:22:16;;;;;;;5.22;2.50;;;;;;;12.42;89.68;102028.44;5015757;28;20046;-46
2022/07/04 01:24:43;;;;;;;4.32;3.20;;;;;;;12.42;89.78;102028.44;5015902;28;20578;-46
2022/07/04 01:27:10;;;;;;;4.45;3.00;;;;;;;12.39;89.57;102029.31;5015155;28;20503;-49
2022/07/04 01:29:36;;;;;;;4.80;2.95;;;;;;;12.36;89.87;102019.47;5014912;28;20057;-46
2022/07/04 01:32:04;;;;;;;7.65;2.90;;;;;;;12.34;90.28;102016.47;5015645;28;20050;-48
2022/07/04 01:34:31;;;;;;;3.75;3.40;;;;;;;12.31;90.62;102018.03;5015226;28;20066;-45
2022/07/04 01:36:59;;;;;;;7.32;3.30;;;;;;;12.34;90.63;102013.78;5015552;28;20162;-45
2022/07/04 01:39:26;;;;;;;5.13;2.95;;;;;;;12.32;90.61;102016.88;5014187;28;20503;-46
2022/07/04 01:41:53;;;;;;;5.75;3.10;;;;;;;12.32;90.54;102024.13;5014735;28;20050;-47
2022/07/04 01:44:19;;;;;;;3.35;3.00;;;;;;;12.32;89.92;102013.47;5015240;28;20426;-47
2022/07/04 01:46:46;;;;;;;3.63;2.97;;;;;;;12.32;89.75;102016.13;5015348;28;20517;-46
2022/07/04 01:49:12;;;;;;;3.20;2.90;;;;;;;12.30;89.51;102018.47;5015483;28;20070;-47
2022/07/04 01:51:47;;;;;;;3.65;2.92;;;;;;;12.25;89.63;102021.63;5015016;28;20050;-46
2022/07/04 01:54:13;;;;;;;4.07;3.00;;;;;;;12.21;90.53;102013.72;5014965;28;20513;-47
2022/07/04 01:56:41;;;;;;;9.45;3.10;;;;;;;12.16;90.03;102008.13;5015281;28;20054;-47
2022/07/04 01:59:08;;;;;;;6.18;3.35;;;;;;;12.12;89.84;102008.22;5014404;28;20050;-46
2022/07/04 02:01:35;;;;;;;9.07;3.33;;;;;;;12.10;89.64;102013.22;5014588;28;20051;-48
2022/07/04 02:04:03;;;;;;;5.78;3.40;;;;;;;12.08;89.73;102010.22;5015192;28;20617;-49
2022/07/04 02:06:30;;;;;;;3.13;2.83;;;;;;;12.06;90.25;102011.81;5014891;28;20055;-47
2022/07/04 02:09:15;;;;;;;7.85;3.13;;;;;;;12.01;90.24;102007.72;5015345;28;20050;-47
2022/07/04 02:14:30;;;;;;;3.53;3.17;;;;;;;11.93;90.61;102011.75;5015144;28;20062;-46
2022/07/04 02:16:56;;;;;;;4.43;3.22;;;;;;;11.97;90.53;102018.50;5014185;28;20060;-46
2022/07/04 02:19:23;;;;;;;3.40;3.20;;;;;;;11.97;90.21;102017.75;5015039;28;20522;-47
2022/07/04 02:21:50;;;;;;;4.25;3.00;;;;;;;11.94;90.35;102016.66;5014342;28;20050;-47
2022/07/04 02:24:16;;;;;;;3.50;3.00;;;;;;;11.93;90.14;102014.41;5014970;28;20062;-46
2022/07/04 02:26:42;;;;;;;3.35;3.05;;;;;;;11.91;90.43;102003.41;5009861;28;20057;-48
2022/07/04 02:29:09;;;;;;;3.83;3.35;;;;;;;11.86;90.58;102003.91;5014363;28;20057;-46
2022/07/04 02:31:35;;;;;;;3.47;3.20;;;;;;;11.83;90.40;102007.41;5014103;28;20057;-46
2022/07/04 02:34:02;;;;;;;3.38;3.13;;;;;;;11.78;90.65;102011.31;5013981;28;20396;-45
2022/07/04 02:36:28;;;;;;;5.63;3.25;;;;;;;11.79;90.26;102009.41;5014718;28;20059;-46
2022/07/04 02:38:54;;;;;;;3.90;3.60;;;;;;;11.79;90.34;102012.06;5014642;28;20050;-47
2022/07/04 02:41:21;;;;;;;6.00;3.00;;;;;;;11.76;90.38;102002.97;5014036;28;20521;-45
2022/07/04 02:43:48;;;;;;;3.55;3.25;;;;;;;11.72;90.59;101996.19;5012698;28;20058;-47
2022/07/04 02:46:14;;;;;;;3.50;3.30;;;;;;;11.70;90.58;102002.69;5014287;28;20498;-46
2022/07/04 02:48:41;;;;;;;3.53;3.30;;;;;;;11.66;90.50;102002.03;5014806;28;20057;-47
2022/07/04 02:51:07;;;;;;;8.60;3.17;;;;;;;11.63;90.63;102008.19;5013996;28;20051;-46
2022/07/04 02:53:34;;;;;;;4.30;3.33;;;;;;;11.60;90.11;102000.25;5014483;28;20499;-47
2022/07/04 02:56:03;;;;;;;4.28;3.45;;;;;;;11.56;90.72;101997.72;5014544;28;20051;-45
2022/07/04 02:58:30;;;;;;;3.90;3.30;;;;;;;11.56;90.55;102003.03;5014150;28;20190;-47
2022/07/04 03:00:57;;;;;;;3.85;3.50;;;;;;;11.52;90.76;101999.69;5014275;28;20042;-46
2022/07/04 03:03:23;;;;;;;3.90;3.60;;;;;;;11.51;91.16;101997.44;5014385;28;20157;-49
2022/07/04 03:05:50;;;;;;;3.45;3.25;;;;;;;11.49;91.03;102000.53;5012618;28;20489;-45
2022/07/04 03:08:17;;;;;;;5.40;3.50;;;;;;;11.46;91.21;101998.69;5014377;28;20489;-47
2022/07/04 03:10:43;;;;;;;3.45;3.15;;;;;;;11.47;91.06;102000.19;5013552;28;20061;-49
2022/07/04 03:13:10;;;;;;;3.53;3.22;;;;;;;11.47;90.69;102010.09;5013796;28;20495;-45
2022/07/04 03:15:36;;;;;;;5.50;3.75;;;;;;;11.43;91.51;102012.09;5014198;28;20054;-45
2022/07/04 03:18:03;;;;;;;4.30;3.97;;;;;;;11.44;92.59;102014.34;5014065;28;20446;-50
2022/07/04 03:20:29;;;;;;;5.75;4.25;;;;;;;11.45;92.45;102015.09;5012970;28;20392;-45
2022/07/04 03:22:55;;;;;;;7.40;4.70;;;;;;;11.48;92.82;102014.28;5014205;28;20061;-47
2022/07/04 03:25:22;;;;;;;14.07;4.45;;;;;;;11.47;92.62;102018.09;5013242;28;20062;-50
2022/07/04 03:27:48;;;;;;;7.78;5.03;;;;;;;11.49;92.83;102016.53;5013501;28;20061;-45
2022/07/04 03:30:15;;;;;;;5.60;4.20;;;;;;;11.48;92.36;102015.03;5014008;28;20055;-46
2022/07/04 03:32:41;;;;;;;6.80;4.65;;;;;;;11.49;93.27;102021.84;5012919;28;20054;-47
2022/07/04 03:35:08;;;;;;;4.55;4.15;;;;;;;11.55;92.88;102022.13;5013753;28;20047;-46
2022/07/04 03:37:34;;;;;;;5.40;4.72;;;;;;;11.54;92.51;102024.03;5013933;28;20050;-46
2022/07/04 03:40:01;;;;;;;5.70;5.07;;;;;;;11.54;92.74;102021.38;5013429;28;20046;-45
2022/07/04 03:42:27;;;;;;;5.68;4.47;;;;;;;11.57;92.81;102011.78;5013437;28;20059;-45
2022/07/04 03:44:54;;;;;;;6.10;4.80;;;;;;;11.58;92.43;102015.97;5013190;28;20498;-47
2022/07/04 03:47:20;;;;;;;4.85;4.35;;;;;;;11.59;92.54;102022.81;5014019;28;20510;-48
2022/07/04 03:49:46;;;;;;;4.80;4.35;;;;;;;11.60;93.14;102025.03;5013466;28;20058;-47
2022/07/04 03:52:13;;;;;;;6.75;4.68;;;;;;;11.63;93.30;102021.53;5013122;28;20062;-49
2022/07/04 03:54:39;;;;;;;7.25;5.10;;;;;;;11.66;93.69;102026.03;5013887;28;20053;-45
2022/07/04 03:57:06;;;;;;;5.93;5.32;;;;;;;11.73;94.11;102022.47;5012751;28;20524;-46
2022/07/04 03:59:32;;;;;;;5.80;5.38;;;;;;;11.78;93.94;102038.00;5013845;28;20057;-45
2022/07/04 04:01:59;;;;;;;5.47;5.03;;;;;;;11.85;93.96;102029.09;5013579;28;20059;-45
2022/07/04 04:07:10;;;;;;;8.60;5.85;;;;;;;11.98;93.54;102028.00;5013076;28;20058;-49
2022/07/04 04:09:37;;;;;;;7.63;6.50;;;;;;;12.02;93.60;102031.31;5012830;28;20046;-51
2022/07/04 04:12:03;;;;;;;12.13;7.03;;;;;;;12.06;93.70;102036.56;5013363;28;20054;-46
2022/07/04 04:14:30;;;;;;;6.88;6.25;;;;;;;12.14;94.14;102040.59;5013119;28;20059;-49
2022/07/04 04:16:56;;;;;;;7.10;6.50;;;;;;;12.21;94.29;102043.09;5013376;28;20050;-48
2022/07/04 04:19:23;;;;;;;8.35;6.13;;;;;;;12.32;93.93;102048.91;5016991;28;20495;-48
2022/07/04 04:21:49;;;;;;;7.50;6.72;;;;;;;12.40;93.51;102048.72;5016320;28;20055;-52
2022/07/04 04:24:16;;;;;;;9.98;7.43;;;;;;;12.42;93.22;102049.81;5016351;28;20511;-49
2022/07/04 04:26:42;;;;;;;9.43;7.30;;;;;;;12.46;93.02;102044.38;5016723;28;20051;-50
2022/07/04 04:29:08;;;;;;;8.25;7.00;;;;;;;12.43;93.13;102037.94;5016344;28;20163;-50
2022/07/04 04:31:35;;;;;;;11.23;6.60;;;;;;;12.44;93.26;102044.03;5016472;28;20058;-48
2022/07/04 04:34:02;;;;;;;8.18;6.93;;;;;;;12.44;93.08;102049.38;5016631;28;20054;-46
2022/07/04 04:36:29;;;;;;;8.70;7.00;;;;;;;12.48;93.23;102050.78;5015848;28;20053;-48
2022/07/04 04:38:55;;;;;;;10.07;7.30;;;;;;;12.49;93.16;102048.88;5016567;28;20054;-49
2022/07/04 04:41:22;;;;;;;8.48;7.10;;;;;;;12.40;93.96;102054.06;5015321;28;20059;-50
2022/07/04 04:43:48;;;;;;;8.85;7.55;;;;;;;12.39;94.05;102048.00;5016716;28;20050;-48
2022/07/04 04:46:18;;;;;;;12.93;7.55;;;;;;;12.44;94.18;102049.38;5016429;28;20066;-46
2022/07/04 04:48:45;;;;;;;13.80;7.90;;;;;;;12.55;94.35;102052.53;5015775;28;20054;-48
2022/07/04 04:51:11;;;;;;;8.43;7.38;;;;;;;12.61;94.43;102056.19;5015776;28;20066;-45
2022/07/04 04:53:38;;;;;;;9.98;7.18;;;;;;;12.72;94.07;102056.69;5016115;28;20050;-47
2022/07/04 04:56:04;;;;;;;8.50;7.47;;;;;;;12.85;93.65;102062.81;5016387;28;20392;-45
2022/07/04 04:58:31;;;;;;;13.63;7.10;;;;;;;12.99;93.25;102062.44;5014703;28;20521;-45
2022/07/04 05:00:57;;;;;;;9.45;7.30;;;;;;;13.04;93.37;102063.81;5016209;28;20050;-46
2022/07/04 05:03:43;;;;;;;11.13;7.32;;;;;;;13.26;93.71;102074.69;5015152;28;20058;-45
2022/07/04 05:06:10;;;;;;;9.27;6.35;;;;;;;13.61;92.45;102067.56;5015547;28;20050;-47
2022/07/04 05:08:36;;;;;;;10.25;6.85;;;;;;;13.75;91.82;102067.13;5016049;28;20051;-47
2022/07/04 05:11:03;;;;;;;10.57;6.82;;;;;;;13.89;91.52;102060.59;5014326;28;20065;-47
2022/07/04 05:13:29;;;;;;;13.25;6.78;;;;;;;14.10;90.46;102064.50;5014068;28;20478;-48
2022/07/04 05:15:56;;;;;;;9.20;6.60;;;;;;;14.05;90.32;102068.50;5013978;28;20054;-48
2022/07/04 05:18:23;;;;;;;11.20;6.25;;;;;;;14.04;90.27;102064.31;5013482;28;20065;-45
2022/07/04 05:20:49;;;;;;;11.25;6.35;;;;;;;14.03;90.65;102066.25;5014909;28;20054;-46
2022/07/04 05:23:16;;;;;;;7.55;5.80;;;;;;;14.11;90.52;102068.69;5015787;28;20094;-48
2022/07/04 05:25:42;;;;;;;10.32;5.50;;;;;;;14.22;90.38;102061.06;5015258;28;20050;-48
2022/07/04 05:28:09;;;;;;;6.47;5.75;;;;;;;14.35;90.11;102073.25;5015285;28;20058;-46
2022/07/04 05:30:35;;;;;;;11.10;6.07;;;;;;;14.48;90.47;102067.88;5013485;28;20059;-50
2022/07/04 05:33:01;;;;;;;8.30;5.40;;;;;;;14.65;89.60;102068.47;5013338;28;20050;-46
2022/07/04 05:35:29;;;;;;;9.00;5.25;;;;;;;15.54;87.13;102065.25;5014045;28;20055;-47
2022/07/04 05:37:55;;;;;;;5.88;4.45;;;;;;;19.06;73.36;102071.63;5006728;28;20046;-48
2022/07/04 05:40:22;;;;;;;11.05;4.40;;;;;;;21.68;61.57;102071.00;5011935;28;20057;-50
2022/07/04 05:42:48;;;;;;;9.82;4.15;;;;;;;23.32;56.82;102079.72;5012924;28;20051;-48
2022/07/04 05:45:15;;;;;;;8.85;3.80;;;;;;;23.28;54.83;102079.25;5012562;28;20058;-45
2022/07/04 05:47:42;;;;;;;6.63;3.45;;;;;;;23.76;53.20;102072.72;5011055;28;20535;-49
2022/07/04 05:50:09;;;;;;;6.40;3.20;;;;;;;25.09;50.53;102082.09;5012029;28;20475;-45
2022/07/04 05:52:36;;;;;;;4.78;2.97;;;;;;;25.54;49.31;102079.66;5012868;28;20058;-45
2022/07/04 05:55:02;;;;;;;5.25;2.97;;;;;;;24.60;50.65;102083.94;5013554;28;20058;-51
2022/07/04 05:57:29;;;;;;;5.00;2.90;;;;;;;21.62;58.21;102087.25;5013387;28;20493;-48
2022/07/04 05:59:55;;;;;;;8.93;2.75;;;;;;;19.96;64.72;102092.56;5013724;28;20055;-50
2022/07/04 06:02:21;;;;;;;5.65;2.60;;;;;;;20.12;65.50;102086.63;5014577;28;20050;-46
2022/07/04 06:04:48;;;;;;;5.63;2.80;;;;;;;19.69;67.95;102090.97;5015389;28;20056;-50
2022/07/04 06:07:14;;;;;;;5.40;2.85;;;;;;;19.82;67.31;102085.25;5015185;28;20062;-47
2022/07/04 06:09:41;;;;;;;17.52;3.50;;;;;;;19.39;67.27;102079.47;5014596;28;20474;-47
2022/07/04 06:12:07;;;;;;;4.20;2.42;;;;;;;21.13;64.07;102090.34;5015115;28;20051;-48
2022/07/04 06:14:34;;;;;;;6.57;3.70;;;;;;;22.57;58.85;102078.72;5014242;28;20142;-50
2022/07/04 06:17:00;;;;;;;3.58;2.65;;;;;;;25.27;51.42;102092.31;5015002;28;20047;-47
2022/07/04 06:19:26;;;;;;;10.02;2.88;;;;;;;25.28;50.05;102101.22;5013757;28;20448;-46
2022/07/04 06:21:53;;;;;;;5.72;2.90;;;;;;;26.44;45.67;102100.38;5014269;28;20054;-48
2022/07/04 06:24:19;;;;;;;8.45;2.92;;;;;;;23.93;52.05;102108.78;5014845;28;20046;-48
2022/07/04 06:26:46;;;;;;;5.20;3.08;;;;;;;22.13;57.28;102093.66;5014773;28;20050;-47
2022/07/04 06:29:12;;;;;;;6.05;3.08;;;;;;;22.78;56.50;102090.13;5013967;28;20050;-47
2022/07/04 06:31:39;;;;;;;7.43;2.78;;;;;;;23.75;54.30;102080.16;5013230;28;20062;-47
2022/07/04 06:36:51;;;;;;;6.30;3.15;;;;;;;20.94;62.13;102079.09;5014186;28;20058;-46
2022/07/04 06:39:17;;;;;;;7.07;2.80;;;;;;;24.30;52.45;102081.16;5013831;28;20529;-47
2022/07/04 06:41:43;;;;;;;6.20;3.10;;;;;;;26.69;45.49;102077.16;5012717;28;20060;-47
2022/07/04 06:44:10;;;;;;;9.32;2.90;;;;;;;27.62;43.45;102082.72;5014630;28;20051;-47
2022/07/04 06:46:39;;;;;;;8.75;2.90;;;;;;;28.95;40.51;102086.50;5014515;28;20137;-50
2022/07/04 06:49:05;;;;;;;7.32;3.10;;;;;;;29.13;39.65;102091.75;5014836;28;20058;-50
2022/07/04 06:51:32;;;;;;;7.45;2.85;;;;;;;29.26;40.87;102085.41;5014600;28;20051;-47
2022/07/04 06:53:58;;;;;;;6.25;3.55;;;;;;;29.93;40.08;102094.53;5014422;28;20113;-46
2022/07/04 06:56:25;;;;;;;6.85;3.15;;;;;;;29.54;40.34;102087.44;5014540;28;20050;-51
2022/07/04 06:58:51;;;;;;;5.28;3.20;;;;;;;27.18;43.23;102077.59;5011726;28;20059;-50
2022/07/04 07:01:18;;;;;;;6.90;2.83;;;;;;;25.84;48.18;102084.28;5013774;28;20053;-49
2022/07/04 07:03:44;;;;;;;12.57;3.83;;;;;;;27.51;44.18;102075.47;5013194;28;20495;-47
2022/07/04 07:06:11;;;;;;;6.22;3.20;;;;;;;29.14;41.87;102079.53;5013651;28;20050;-48
2022/07/04 07:08:37;;;;;;;8.43;3.25;;;;;;;29.95;39.43;102083.75;5011528;28;20422;-47
2022/07/04 07:11:13;;;;;;;7.72;3.00;;;;;;;30.25;39.54;102074.13;5014051;28;20610;-47
2022/07/04 07:13:45;;;;;;;5.53;2.90;;;;;;;30.53;39.19;102082.22;5012430;28;20060;-47
2022/07/04 07:16:12;;;;;;;8.60;3.33;;;;;;;30.30;38.39;102082.22;5013850;28;20054;-48
2022/07/04 07:18:39;;;;;;;6.78;3.10;;;;;;;29.88;37.58;102072.75;5013709;28;20071;-46
2022/07/04 07:21:05;;;;;;;8.82;2.90;;;;;;;29.86;39.56;102074.03;5012517;28;20551;-47
2022/07/04 07:23:32;;;;;;;6.13;3.17;;;;;;;30.15;39.34;102073.94;5014182;28;20051;-50
2022/07/04 07:25:58;;;;;;;6.60;3.10;;;;;;;30.35;38.69;102069.59;5013704;28;20062;-47
2022/07/04 07:28:25;;;;;;;5.20;2.95;;;;;;;30.32;39.61;102070.66;5014190;28;20054;-48
2022/07/04 07:30:51;;;;;;;5.60;3.13;;;;;;;29.55;39.63;102071.72;5013530;28;20092;-48
2022/07/04 07:33:17;;;;;;;6.60;2.85;;;;;;;29.44;39.54;102076.22;5013800;28;20054;-47
2022/07/04 07:35:44;;;;;;;6.10;2.53;;;;;;;30.04;38.83;102082.50;5013229;28;20525;-47
2022/07/04 07:38:10;;;;;;;3.70;2.35;;;;;;;30.24;39.20;102089.88;5012449;28;20058;-47
2022/07/04 07:40:37;;;;;;;6.55;2.25;;;;;;;31.02;36.21;102092.13;5013419;28;20054;-47
2022/07/04 07:43:03;;;;;;;4.72;2.25;;;;;;;29.22;38.50;102093.25;5014086;28;20537;-49
2022/07/04 07:45:29;;;;;;;3.80;2.25;;;;;;;27.28;42.70;102088.81;5011594;28;20133;-48
2022/07/04 07:47:56;;;;;;;6.07;2.55;;;;;;;25.16;46.48;102089.72;5013666;28;20200;-48
2022/07/04 07:50:22;;;;;;;7.07;2.55;;;;;;;23.92;50.98;102080.84;5012208;28;20096;-47
2022/07/04 07:52:49;;;;;;;3.22;2.03;;;;;;;24.23;50.95;102085.13;5015826;28;20057;-48
2022/07/04 07:55:15;;;;;;;11.15;2.53;;;;;;;25.02;48.69;102084.63;5016772;28;20050;-47
2022/07/04 07:57:41;;;;;;;5.22;2.33;;;;;;;26.41;46.87;102082.28;5016566;28;20051;-46
2022/07/04 08:00:14;;;;;;;4.40;2.28;;;;;;;27.16;43.95;102082.09;5016107;28;20590;-48
2022/07/04 08:05:46;;;;;;;3.63;2.10;;;;;;;26.85;46.44;102078.84;5017169;28;20062;-46
2022/07/04 08:08:12;;;;;;;2.65;2.00;;;;;;;27.70;44.64;102089.03;5017265;28;20113;-48
2022/07/04 08:10:39;;;;;;;4.25;2.22;;;;;;;28.39;43.61;102091.28;5016313;28;20050;-46
2022/07/04 08:13:05;;;;;;;6.82;2.00;;;;;;;28.60;42.34;102090.59;5016644;28;20530;-48
2022/07/04 08:15:32;;;;;;;3.40;1.80;;;;;;;28.23;41.02;102086.94;5016883;28;20050;-50
2022/07/04 08:17:59;;;;;;;4.25;1.92;;;;;;;27.53;41.23;102087.38;5015717;28;20059;-49
2022/07/04 08:20:26;;;;;;;5.93;1.88;;;;;;;27.39;42.89;102088.63;5016244;28;20064;-49
2022/07/04 08:22:52;;;;;;;3.28;2.10;;;;;;;26.18;45.20;102093.50;5014468;28;20051;-45
2022/07/04 08:25:19;;;;;;;4.10;1.95;;;;;;;25.57;48.13;102095.00;5016315;28;20039;-47
2022/07/04 08:27:46;;;;;;;2.88;1.90;;;;;;;26.71;45.86;102095.75;5015760;28;20059;-46
2022/07/04 08:30:12;;;;;;;2.53;2.00;;;;;;;26.42;43.69;102095.41;5016418;28;21006;-46
2022/07/04 08:32:39;;;;;;;3.78;1.90;;;;;;;25.42;46.91;102102.81;5016188;28;20465;-48
2022/07/04 08:35:06;;;;;;;5.43;1.65;;;;;;;25.64;50.22;102106.56;5015600;28;20451;-47
2022/07/04 08:37:33;;;;;;;3.53;1.80;;;;;;;25.80;46.62;102105.66;5016087;28;20505;-46
2022/07/04 08:39:59;;;;;;;2.45;1.55;;;;;;;24.73;46.52;102105.13;5014715;28;20069;-46
2022/07/04 08:42:29;;;;;;;8.13;2.05;;;;;;;23.99;49.62;102101.34;5016080;28;20055;-47
2022/07/04 08:44:57;;;;;;;3.73;2.00;;;;;;;24.61;52.10;102109.91;5016586;28;20050;-46
2022/07/04 08:47:24;;;;;;;2.83;2.17;;;;;;;24.50;48.16;102096.38;5015588;28;20272;-46
2022/07/04 08:50:06;;;;;;;4.60;2.28;;;;;;;23.86;51.00;102106.56;5006210;28;20054;-46
2022/07/04 08:52:36;;;;;;;4.57;2.30;;;;;;;23.16;52.40;102111.13;5014261;28;20061;-46
2022/07/04 08:58:36;;;;;;;6.57;2.03;;;;;;;22.62;54.40;102110.56;5010242;28;20058;-47
2022/07/04 09:00:38;;;;;;;5.53;1.83;;;;;;;21.98;59.09;102114.78;5017171;28;20054;-46
2022/07/04 09:03:05;;;;;;;3.85;1.80;;;;;;;21.62;56.21;102111.63;5012050;28;20046;-50
2022/07/04 09:05:32;;;;;;;3.10;1.52;;;;;;;21.41;57.86;102118.41;5014396;28;20137;-48
2022/07/04 09:08:00;;;;;;;3.90;1.80;;;;;;;21.16;57.80;102119.91;5014801;28;20055;-50
2022/07/04 09:10:27;;;;;;;1.80;1.40;;;;;;;21.12;58.22;102124.06;5015626;28;20055;-45
2022/07/04 09:12:53;;;;;;;3.72;1.80;;;;;;;21.08;58.42;102123.53;5015621;28;20057;-45
2022/07/04 09:15:36;;;;;;;2.75;1.40;;;;;;;21.28;59.21;102120.75;5015222;28;20527;-47
2022/07/04 09:18:03;;;;;;;3.50;1.80;;;;;;;21.55;57.80;102124.91;5015146;28;20050;-47
2022/07/04 09:20:32;;;;;;;1.60;1.38;;;;;;;22.93;55.92;102126.66;5014634;28;20105;-50
2022/07/04 09:22:59;;;;;;;3.08;1.60;;;;;;;24.56;49.84;102124.31;5014565;28;20055;-46
2022/07/04 09:25:26;;;;;;;2.20;1.75;;;;;;;26.02;44.42;102119.00;5014779;28;20051;-47
2022/07/04 09:27:55;;;;;;;3.00;1.67;;;;;;;25.46;48.27;102116.91;5014945;28;20140;-47
2022/07/04 09:30:25;;;;;;;2.45;1.42;;;;;;;25.66;42.64;102109.53;5013842;28;20046;-46
2022/07/04 09:33:04;;;;;;;2.72;1.58;;;;;;;26.77;44.29;102110.06;5014828;28;20058;-47
2022/07/04 09:35:35;;;;;;;3.40;1.55;;;;;;;26.82;41.03;102104.47;5015037;28;20070;-47
2022/07/04 09:38:04;;;;;;;4.80;1.50;;;;;;;25.68;42.51;102109.75;5013874;28;20566;-47
2022/07/04 09:43:24;;;;;;;4.18;1.30;;;;;;;24.43;45.44;102116.69;5013776;28;20058;-47
2022/07/04 09:46:01;;;;;;;2.22;1.10;;;;;;;23.60;45.20;102115.75;5014131;28;20061;-47
2022/07/04 09:48:49;;;;;;;2.15;1.30;;;;;;;23.32;45.75;102106.91;5015038;28;20064;-53
2022/07/04 09:51:35;;;;;;;1.23;1.13;;;;;;;22.88;48.47;102115.81;5012683;28;20054;-54
2022/07/04 09:54:19;;;;;;;2.10;1.60;;;;;;;22.86;48.56;102116.28;5014752;28;20054;-52
2022/07/04 09:56:48;;;;;;;2.35;1.20;;;;;;;22.81;49.32;102108.88;5014713;28;20054;-47
2022/07/04 09:59:15;;;;;;;5.65;1.80;;;;;;;22.82;49.17;102117.75;5011400;28;20069;-53
2022/07/04 10:01:41;;;;;;;2.20;1.45;;;;;;;23.71;48.42;102117.72;5013285;28;20050;-51
2022/07/04 10:04:09;;;;;;;2.72;1.20;;;;;;;24.74;44.44;102109.34;5011343;28;20054;-48
2022/07/04 10:06:38;;;;;;;2.60;1.50;;;;;;;26.02;43.13;102113.56;5012576;28;20054;-52
2022/07/04 10:09:13;;;;;;;2.35;1.42;;;;;;;25.36;41.71;102115.75;5012268;28;20077;-50
2022/07/04 10:11:42;;;;;;;1.33;1.23;;;;;;;24.32;47.19;102111.34;5014356;28;20046;-47
2022/07/04 10:14:11;;;;;;;2.80;1.40;;;;;;;23.71;45.93;102109.56;5013284;28;20058;-48
2022/07/04 10:16:39;;;;;;;1.52;1.33;;;;;;;23.23;48.04;102101.72;5014262;28;20069;-53
2022/07/04 10:19:08;;;;;;;1.65;1.13;;;;;;;23.03;47.42;102096.56;5014043;28;20054;-49
2022/07/04 10:21:34;;;;;;;1.85;1.33;;;;;;;22.51;48.18;102100.44;5014230;28;20046;-53
2022/07/04 10:24:03;;;;;;;3.22;1.30;;;;;;;22.46;51.18;102103.88;5014542;28;20050;-49
2022/07/04 10:26:30;;;;;;;1.95;1.70;;;;;;;22.35;49.97;102108.53;5012934;28;20514;-47
2022/07/04 10:28:57;;;;;;;2.92;1.50;;;;;;;22.13;50.22;102099.09;5014118;28;20061;-48
2022/07/04 10:31:27;;;;;;;3.13;1.30;;;;;;;22.04;51.14;102102.00;5013850;28;20521;-48
2022/07/04 10:33:56;;;;;;;3.38;1.30;;;;;;;21.98;51.86;102103.94;5012080;28;20058;-50
2022/07/04 10:36:28;;;;;;;1.40;1.30;;;;;;;22.27;52.01;102100.88;5014070;28;20137;-50
2022/07/04 10:38:58;;;;;;;3.83;1.45;;;;;;;22.40;50.95;102107.78;5013815;28;20062;-52
2022/07/04 10:41:27;;;;;;;2.10;1.30;;;;;;;22.45;49.00;102115.22;5013122;28;20071;-50
2022/07/04 10:44:00;;;;;;;1.80;1.60;;;;;;;23.09;48.70;102106.19;5014057;28;20085;-46
2022/07/04 10:46:37;;;;;;;6.30;1.42;;;;;;;23.72;48.05;102111.03;5013936;28;20553;-46
2022/07/04 10:49:15;;;;;;;2.63;1.70;;;;;;;23.39;47.22;102100.97;5013433;28;20058;-46
2022/07/04 10:51:48;;;;;;;1.80;1.70;;;;;;;23.20;52.27;102103.44;5012556;28;20054;-46
2022/07/04 10:54:17;;;;;;;3.83;1.70;;;;;;;24.12;47.65;102100.75;5012997;28;20050;-49
2022/07/04 10:56:56;;;;;;;1.92;1.50;;;;;;;25.08;48.98;102091.50;5013601;28;20450;-46
2022/07/04 10:59:27;;;;;;;1.50;1.40;;;;;;;25.89;48.05;102097.13;5012995;28;20062;-49
2022/07/04 11:02:17;;;;;;;3.63;1.50;;;;;;;27.19;43.42;102097.47;5012457;28;20050;-49
2022/07/04 11:05:09;;;;;;;1.65;1.55;;;;;;;25.98;37.85;102091.31;5003480;28;20050;-46
2022/07/04 11:07:35;;;;;;;1.80;1.33;;;;;;;24.96;40.32;102097.56;5012305;28;20217;-50
2022/07/04 11:10:21;;;;;;;2.13;1.20;;;;;;;24.34;45.39;102095.25;5012978;28;20141;-48
2022/07/04 11:12:51;;;;;;;1.40;1.30;;;;;;;23.71;42.50;102087.81;5010631;28;20061;-50
2022/07/04 11:15:18;;;;;;;2.08;1.20;;;;;;;24.53;49.09;102087.94;5012528;28;20053;-50
2022/07/04 11:17:45;;;;;;;3.22;1.38;;;;;;;25.72;40.13;102091.84;5011190;28;20500;-48
2022/07/04 11:20:11;;;;;;;5.88;1.45;;;;;;;26.34;39.23;102089.09;5011798;28;20442;-47
2022/07/04 11:22:38;;;;;;;6.75;1.50;;;;;;;25.33;40.58;102083.34;5011567;28;20050;-49
2022/07/04 11:25:04;;;;;;;1.50;1.38;;;;;;;24.17;43.54;102089.84;5011080;28;20062;-48
2022/07/04 11:27:31;;;;;;;5.53;1.88;;;;;;;23.66;45.22;102090.56;5014373;28;20042;-46
2022/07/04 11:29:57;;;;;;;6.05;1.52;;;;;;;24.05;43.21;102093.88;5015540;28;20085;-48
2022/07/04 11:32:32;;;;;;;6.45;1.95;;;;;;;24.10;45.79;102090.38;5014906;28;20057;-47
2022/07/04 11:34:58;;;;;;;2.03;1.30;;;;;;;23.94;46.65;102089.22;5015257;28;20054;-48
2022/07/04 11:37:25;;;;;;;4.30;1.38;;;;;;;23.87;46.79;102095.19;5013002;28;20431;-46
2022/07/04 11:39:52;;;;;;;8.20;1.63;;;;;;;25.05;45.72;102089.06;5015187;28;20491;-46
2022/07/04 11:45:07;;;;;;;5.30;1.60;;;;;;;25.79;40.51;102080.38;5015226;28;20058;-47
2022/07/04 11:47:36;;;;;;;1.27;1.15;;;;;;;25.87;42.80;102075.06;5014678;28;20047;-48